Etusivu
METAR-TAF:

METAR-TAF

Lentoasemat :

Tucson, Arizona, Yhdysvallat

Leveyspiiri: 32-24-34N, Pituuspiiri: 111-13-06W, korkeus merenpinnasta: 619 m

Tämänhetkinen sää

Tämä raportti tehtiin 16 minuuttia sitten, kello 20.55 UTC
tyyntä
Lämpötila 20°C
Kosteus 35%
Ilmanpaine 1021 hPa
Näkyvyys: 16.1 km
Hajanaisia pilviä 12000 ft:n korkeudessa

METAR: KAVQ 062055Z AUTO 00000KT 10SM SCT120 20/04 A3014 RMK AO2 T01960039

Aika: 14:11 (21:11 UTC)


TAF: puuttuu

Säähavainnot ja -ennusteet yli 4000 lentoasemalta (METAR- ja TAF-raportit).

Käytössä olevat sääasemat on merkitty karttaan keltaisilla ja punaisilla pisteillä.

Aseta hiiri pisteen päälle nähdäksesi sääaseman nimen.

Klikkaa sitten nähdäksesi säähavainnot ja -ennusteet.

Kartan vaihtaminen: klikkaa mustalla rastilla varustettuja vihreitä pisteitä, niin voit zoomata sisään; viivalla varustettua vihreää pistettä, niin voit zoomata ulos tai vihreitä nuolia, niin pääset viereisille kartoille.


METAR-TAF: